Time;durP1;ratioP1;P1;durP2;ratioP2;P2;SDS_P1;SDS_P2;PMS_P1;PMS_P2;Temp;Humidity;BMP_temperature;BMP_pressure;BME280_temperature;BME280_humidity;BME280_pressure;Samples;Min_cycle;Max_cycle;Signal;HPM_P1;HPM_P2
2023/09/12 00:02:00;;;;;;;;;;;;;;;;;;5091632;28;20393;-67
2023/09/12 00:04:27;;;;;;;;;;;;;;;;;;5091232;28;19969;-67
2023/09/12 00:06:54;;;;;;;;;;;;;;;;;;5090918;28;19950;-67
2023/09/12 00:09:21;;;;;;;;;;;;;;;;;;5091771;28;19924;-67
2023/09/12 00:11:48;;;;;;;;;;;;;;;;;;5091600;28;19982;-68
2023/09/12 00:14:15;;;;;;;;;;;;;;;;;;5092693;28;19986;-71
2023/09/12 00:16:42;;;;;;;;;;;;;;;;;;5092131;28;19977;-67
2023/09/12 00:19:09;;;;;;;;;;;;;;;;;;5090711;28;20440;-67
2023/09/12 00:21:36;;;;;;;;;;;;;;;;;;5091771;28;19924;-67
2023/09/12 00:24:03;;;;;;;;;;;;;;;;;;5088708;28;19924;-68
2023/09/12 00:26:31;;;;;;;;;;;;;;;;;;5091530;28;19924;-68
2023/09/12 00:28:58;;;;;;;;;;;;;;;;;;5092439;28;20019;-67
2023/09/12 00:31:25;;;;;;;;;;;;;;;;;;5091895;28;19971;-67
2023/09/12 00:33:52;;;;;;;;;;;;;;;;;;5091522;28;19935;-68
2023/09/12 00:36:19;;;;;;;;;;;;;;;;;;5091661;28;19924;-68
2023/09/12 00:38:46;;;;;;;;;;;;;;;;;;5091153;28;20027;-68
2023/09/12 00:41:13;;;;;;;;;;;;;;;;;;5091381;28;19954;-67
2023/09/12 00:43:39;;;;;;;;;;;;;;;;;;5090942;28;19924;-68
2023/09/12 00:46:06;;;;;;;;;;;;;;;;;;5092144;28;20037;-67
2023/09/12 00:48:33;;;;;;;;;;;;;;;;;;5091169;28;20529;-68
2023/09/12 00:51:00;;;;;;;;;;;;;;;;;;5091872;28;19924;-68
2023/09/12 00:53:27;;;;;;;;;;;;;;;;;;5090865;28;19923;-68
2023/09/12 00:55:56;;;;;;;;;;;;;;;;;;5091907;28;19928;-67
2023/09/12 00:58:23;;;;;;;;;;;;;;;;;;5093043;28;19924;-67
2023/09/12 01:00:50;;;;;;;;;;;;;;;;;;5094925;28;20049;-67
2023/09/12 01:03:17;;;;;;;;;;;;;;;;;;5094140;28;19924;-67
2023/09/12 01:05:44;;;;;;;;;;;;;;;;;;5094157;28;19925;-67
2023/09/12 01:08:11;;;;;;;;;;;;;;;;;;5094775;28;20395;-68
2023/09/12 01:10:38;;;;;;;;;;;;;;;;;;5093662;28;19924;-68
2023/09/12 01:13:05;;;;;;;;;;;;;;;;;;5086605;28;19924;-68
2023/09/12 01:15:32;;;;;;;;;;;;;;;;;;5090742;28;19967;-67
2023/09/12 01:18:00;;;;;;;;;;;;;;;;;;5091946;28;19928;-67
2023/09/12 01:20:27;;;;;;;;;;;;;;;;;;5093463;28;19978;-67
2023/09/12 01:22:53;;;;;;;;;;;;;;;;;;5093958;28;19986;-67
2023/09/12 01:25:20;;;;;;;;;;;;;;;;;;5094156;28;20531;-67
2023/09/12 01:27:47;;;;;;;;;;;;;;;;;;5093985;28;19924;-67
2023/09/12 01:30:14;;;;;;;;;;;;;;;;;;5093852;28;19928;-68
2023/09/12 01:32:41;;;;;;;;;;;;;;;;;;5094131;28;19928;-67
2023/09/12 01:35:08;;;;;;;;;;;;;;;;;;5094625;28;19924;-67
2023/09/12 01:37:35;;;;;;;;;;;;;;;;;;5085706;28;19925;-67
2023/09/12 01:40:02;;;;;;;;;;;;;;;;;;5093091;28;19924;-67
2023/09/12 01:42:29;;;;;;;;;;;;;;;;;;5093870;28;20019;-67
2023/09/12 01:44:56;;;;;;;;;;;;;;;;;;5094165;28;20298;-67
2023/09/12 01:47:23;;;;;;;;;;;;;;;;;;5093130;28;19947;-67
2023/09/12 01:49:50;;;;;;;;;;;;;;;;;;5092559;28;19924;-67
2023/09/12 01:52:17;;;;;;;;;;;;;;;;;;5092633;28;19924;-67
2023/09/12 01:54:44;;;;;;;;;;;;;;;;;;5092979;28;19969;-67
2023/09/12 01:57:11;;;;;;;;;;;;;;;;;;5092580;28;20383;-67
2023/09/12 01:59:38;;;;;;;;;;;;;;;;;;5091774;28;19977;-67
2023/09/12 02:02:06;;;;;;;;;;;;;;;;;;5092226;28;19972;-67
2023/09/12 02:04:33;;;;;;;;;;;;;;;;;;5093911;28;19935;-67
2023/09/12 02:07:00;;;;;;;;;;;;;;;;;;5092378;28;19978;-68
2023/09/12 02:09:27;;;;;;;;;;;;;;;;;;5092630;28;19924;-67
2023/09/12 02:11:54;;;;;;;;;;;;;;;;;;5090699;28;19985;-67
2023/09/12 02:14:21;;;;;;;;;;;;;;;;;;5093934;28;19924;-68
2023/09/12 02:16:48;;;;;;;;;;;;;;;;;;5093709;28;19924;-68
2023/09/12 02:19:15;;;;;;;;;;;;;;;;;;5093460;28;19970;-68
2023/09/12 02:21:42;;;;;;;;;;;;;;;;;;5092427;28;19924;-68
2023/09/12 02:24:10;;;;;;;;;;;;;;;;;;5093840;28;19924;-68
2023/09/12 02:26:37;;;;;;;;;;;;;;;;;;5092683;28;20311;-67
2023/09/12 02:29:05;;;;;;;;;;;;;;;;;;5091305;28;20037;-68
2023/09/12 02:31:32;;;;;;;;;;;;;;;;;;5091648;28;20387;-67
2023/09/12 02:33:59;;;;;;;;;;;;;;;;;;5093852;28;19973;-67
2023/09/12 02:36:27;;;;;;;;;;;;;;;;;;5093130;28;20444;-68
2023/09/12 02:38:54;;;;;;;;;;;;;;;;;;5093948;28;19993;-68
2023/09/12 02:41:21;;;;;;;;;;;;;;;;;;5093139;28;19973;-68
2023/09/12 02:43:48;;;;;;;;;;;;;;;;;;5093198;28;20383;-67
2023/09/12 02:46:15;;;;;;;;;;;;;;;;;;5092456;28;19931;-68
2023/09/12 02:48:42;;;;;;;;;;;;;;;;;;5093439;28;20290;-67
2023/09/12 02:51:09;;;;;;;;;;;;;;;;;;5092078;28;19978;-68
2023/09/12 02:53:36;;;;;;;;;;;;;;;;;;5092368;28;19972;-67
2023/09/12 02:56:03;;;;;;;;;;;;;;;;;;5072689;28;19925;-67
2023/09/12 02:58:30;;;;;;;;;;;;;;;;;;5085990;28;20440;-67
2023/09/12 03:00:57;;;;;;;;;;;;;;;;;;5091806;28;19969;-67
2023/09/12 03:03:24;;;;;;;;;;;;;;;;;;5093049;28;20633;-66
2023/09/12 03:05:51;;;;;;;;;;;;;;;;;;5090143;28;19994;-68
2023/09/12 03:08:18;;;;;;;;;;;;;;;;;;5092961;28;19967;-67
2023/09/12 03:10:45;;;;;;;;;;;;;;;;;;5091909;28;20468;-67
2023/09/12 03:13:13;;;;;;;;;;;;;;;;;;5092796;28;19924;-67
2023/09/12 03:15:40;;;;;;;;;;;;;;;;;;5092248;28;19975;-69
2023/09/12 03:18:07;;;;;;;;;;;;;;;;;;5092052;28;19971;-67
2023/09/12 03:20:34;;;;;;;;;;;;;;;;;;5091399;28;20387;-67
2023/09/12 03:23:01;;;;;;;;;;;;;;;;;;5091286;28;20008;-66
2023/09/12 03:25:31;;;;;;;;;;;;;;;;;;5090655;28;19974;-66
2023/09/12 03:27:58;;;;;;;;;;;;;;;;;;5092092;28;19924;-66
2023/09/12 03:30:25;;;;;;;;;;;;;;;;;;5089457;28;19924;-68
2023/09/12 03:32:52;;;;;;;;;;;;;;;;;;5092628;28;19928;-67
2023/09/12 03:35:19;;;;;;;;;;;;;;;;;;5091193;28;20362;-67
2023/09/12 03:37:46;;;;;;;;;;;;;;;;;;5092261;28;19959;-67
2023/09/12 03:40:13;;;;;;;;;;;;;;;;;;5092204;28;19924;-67
2023/09/12 03:42:40;;;;;;;;;;;;;;;;;;5090317;28;19930;-67
2023/09/12 03:45:07;;;;;;;;;;;;;;;;;;5087913;28;19924;-67
2023/09/12 03:47:34;;;;;;;;;;;;;;;;;;5084461;28;19959;-67
2023/09/12 03:50:02;;;;;;;;;;;;;;;;;;5091417;28;19924;-67
2023/09/12 03:52:29;;;;;;;;;;;;;;;;;;5091819;28;19925;-67
2023/09/12 03:54:56;;;;;;;;;;;;;;;;;;5091333;28;19924;-67
2023/09/12 03:57:23;;;;;;;;;;;;;;;;;;5091223;28;19970;-67
2023/09/12 03:59:51;;;;;;;;;;;;;;;;;;5084596;28;20023;-67
2023/09/12 04:02:18;;;;;;;;;;;;;;;;;;5072274;28;19970;-67
2023/09/12 04:04:45;;;;;;;;;;;;;;;;;;5085132;28;19977;-67
2023/09/12 04:07:12;;;;;;;;;;;;;;;;;;5091827;28;19977;-67
2023/09/12 04:09:39;;;;;;;;;;;;;;;;;;5090845;28;20287;-67
2023/09/12 04:12:08;;;;;;;;;;;;;;;;;;5091227;28;19969;-67
2023/09/12 04:14:35;;;;;;;;;;;;;;;;;;5090999;28;19931;-68
2023/09/12 04:17:02;;;;;;;;;;;;;;;;;;5090615;28;20021;-67
2023/09/12 04:19:29;;;;;;;;;;;;;;;;;;5088981;28;19924;-67
2023/09/12 04:21:56;;;;;;;;;;;;;;;;;;5091010;28;19924;-67
2023/09/12 04:24:24;;;;;;;;;;;;;;;;;;5091230;28;19924;-68
2023/09/12 04:26:51;;;;;;;;;;;;;;;;;;5091686;28;19925;-67
2023/09/12 04:29:18;;;;;;;;;;;;;;;;;;5090431;28;19928;-68
2023/09/12 04:31:45;;;;;;;;;;;;;;;;;;5091349;28;19924;-68
2023/09/12 04:34:12;;;;;;;;;;;;;;;;;;5093684;28;19928;-67
2023/09/12 04:36:39;;;;;;;;;;;;;;;;;;5094784;28;19924;-67
2023/09/12 04:39:06;;;;;;;;;;;;;;;;;;5094693;28;19936;-68
2023/09/12 04:41:33;;;;;;;;;;;;;;;;;;5094762;28;19924;-68
2023/09/12 04:44:02;;;;;;;;;;;;;;;;;;5094001;28;19928;-69
2023/09/12 04:46:29;;;;;;;;;;;;;;;;;;5094977;28;19931;-68
2023/09/12 04:48:56;;;;;;;;;;;;;;;;;;5095286;28;19977;-68
2023/09/12 04:51:23;;;;;;;;;;;;;;;;;;5094181;28;19924;-68
2023/09/12 04:53:51;;;;;;;;;;;;;;;;;;5091729;28;19924;-69
2023/09/12 04:56:18;;;;;;;;;;;;;;;;;;5093334;28;19957;-69
2023/09/12 04:58:45;;;;;;;;;;;;;;;;;;5092995;28;19970;-69
2023/09/12 05:01:12;;;;;;;;;;;;;;;;;;5094604;28;19997;-69
2023/09/12 05:03:39;;;;;;;;;;;;;;;;;;5094134;28;19924;-69
2023/09/12 05:06:06;;;;;;;;;;;;;;;;;;5094396;28;20456;-69
2023/09/12 05:08:33;;;;;;;;;;;;;;;;;;5094339;28;19970;-69
2023/09/12 05:11:01;;;;;;;;;;;;;;;;;;5094504;28;19960;-69
2023/09/12 05:13:28;;;;;;;;;;;;;;;;;;5093564;28;19924;-69
2023/09/12 05:15:56;;;;;;;;;;;;;;;;;;5094779;28;19924;-70
2023/09/12 05:18:23;;;;;;;;;;;;;;;;;;5094668;28;19924;-68
2023/09/12 05:20:50;;;;;;;;;;;;;;;;;;5094946;28;19931;-68
2023/09/12 05:23:17;;;;;;;;;;;;;;;;;;5093949;28;21749;-68
2023/09/12 05:25:44;;;;;;;;;;;;;;;;;;5093582;28;19975;-68
2023/09/12 05:28:15;;;;;;;;;;;;;;;;;;5093905;28;20919;-68
2023/09/12 05:30:42;;;;;;;;;;;;;;;;;;5084311;28;20387;-68
2023/09/12 05:33:09;;;;;;;;;;;;;;;;;;5081614;28;19931;-68
2023/09/12 05:35:37;;;;;;;;;;;;;;;;;;5093279;28;19931;-68
2023/09/12 05:38:04;;;;;;;;;;;;;;;;;;5093107;28;20412;-68
2023/09/12 05:40:31;;;;;;;;;;;;;;;;;;5094193;28;19924;-68
2023/09/12 05:42:58;;;;;;;;;;;;;;;;;;5095022;28;19924;-68
2023/09/12 05:45:25;;;;;;;;;;;;;;;;;;5092153;28;19928;-68
2023/09/12 05:47:52;;;;;;;;;;;;;;;;;;5091186;28;19932;-68
2023/09/12 05:50:19;;;;;;;;;;;;;;;;;;5094212;28;19924;-68
2023/09/12 05:52:46;;;;;;;;;;;;;;;;;;5094020;28;19932;-68
2023/09/12 05:55:13;;;;;;;;;;;;;;;;;;5092232;28;20448;-67
2023/09/12 05:57:40;;;;;;;;;;;;;;;;;;5092741;28;19931;-68
2023/09/12 06:00:10;;;;;;;;;;;;;;;;;;5092746;28;19928;-67
2023/09/12 06:02:37;;;;;;;;;;;;;;;;;;5092491;28;19925;-69
2023/09/12 06:05:04;;;;;;;;;;;;;;;;;;5090826;28;19994;-66
2023/09/12 06:07:32;;;;;;;;;;;;;;;;;;5090477;28;19951;-67
2023/09/12 06:09:59;;;;;;;;;;;;;;;;;;5079598;28;19928;-67
2023/09/12 06:12:26;;;;;;;;;;;;;;;;;;5089921;28;20328;-67
2023/09/12 06:14:55;;;;;;;;;;;;;;;;;;5089948;28;19981;-69
2023/09/12 06:17:22;;;;;;;;;;;;;;;;;;5088464;28;19932;-66
2023/09/12 06:19:50;;;;;;;;;;;;;;;;;;5090404;28;20020;-69
2023/09/12 06:22:19;;;;;;;;;;;;;;;;;;5092787;28;19968;-68
2023/09/12 06:24:46;;;;;;;;;;;;;;;;;;5076103;28;19924;-68
2023/09/12 06:27:18;;;;;;;;;;;;;;;;;;5092590;28;20290;-68
2023/09/12 06:29:45;;;;;;;;;;;;;;;;;;5089692;28;19924;-68
2023/09/12 06:32:12;;;;;;;;;;;;;;;;;;5090452;28;20341;-69
2023/09/12 06:34:39;;;;;;;;;;;;;;;;;;5092327;28;19965;-67
2023/09/12 06:37:06;;;;;;;;;;;;;;;;;;5084299;28;19924;-68
2023/09/12 06:39:33;;;;;;;;;;;;;;;;;;5089698;28;20001;-68
2023/09/12 06:42:01;;;;;;;;;;;;;;;;;;5086325;28;19970;-67
2023/09/12 06:44:28;;;;;;;;;;;;;;;;;;5090099;28;19928;-68
2023/09/12 06:46:55;;;;;;;;;;;;;;;;;;5083017;28;19936;-68
2023/09/12 06:49:23;;;;;;;;;;;;;;;;;;5090064;28;19931;-68
2023/09/12 06:51:50;;;;;;;;;;;;;;;;;;5087209;28;19955;-69
2023/09/12 06:54:18;;;;;;;;;;;;;;;;;;5077509;28;20021;-69
2023/09/12 06:56:45;;;;;;;;;;;;;;;;;;5086381;28;19924;-69
2023/09/12 06:59:12;;;;;;;;;;;;;;;;;;5085736;28;20028;-69
2023/09/12 07:01:39;;;;;;;;;;;;;;;;;;5091088;28;20414;-69
2023/09/12 07:04:06;;;;;;;;;;;;;;;;;;5091295;28;19924;-70
2023/09/12 07:06:33;;;;;;;;;;;;;;;;;;5090808;28;20333;-69
2023/09/12 07:09:00;;;;;;;;;;;;;;;;;;5086986;28;20039;-69
2023/09/12 07:11:27;;;;;;;;;;;;;;;;;;5085762;28;19932;-69
2023/09/12 07:13:54;;;;;;;;;;;;;;;;;;5091683;28;20013;-69
2023/09/12 07:16:21;;;;;;;;;;;;;;;;;;5092136;28;20020;-68
2023/09/12 07:18:48;;;;;;;;;;;;;;;;;;5090712;28;20391;-69
2023/09/12 07:21:15;;;;;;;;;;;;;;;;;;5088014;28;19932;-69
2023/09/12 07:23:42;;;;;;;;;;;;;;;;;;5091989;28;19931;-68
2023/09/12 07:26:09;;;;;;;;;;;;;;;;;;5090401;28;19971;-69
2023/09/12 07:28:37;;;;;;;;;;;;;;;;;;5083355;28;20456;-68
2023/09/12 07:31:04;;;;;;;;;;;;;;;;;;5089803;28;19936;-69
2023/09/12 07:33:31;;;;;;;;;;;;;;;;;;5088965;28;19960;-68
2023/09/12 07:35:59;;;;;;;;;;;;;;;;;;5091992;28;19924;-69
2023/09/12 07:38:26;;;;;;;;;;;;;;;;;;5092379;28;19950;-70
2023/09/12 07:40:53;;;;;;;;;;;;;;;;;;5091036;28;19979;-69
2023/09/12 07:43:20;;;;;;;;;;;;;;;;;;5089248;28;19924;-69
2023/09/12 07:45:49;;;;;;;;;;;;;;;;;;5088628;28;19928;-69
2023/09/12 07:48:16;;;;;;;;;;;;;;;;;;5090085;28;19959;-69
2023/09/12 07:50:43;;;;;;;;;;;;;;;;;;5091214;28;19924;-70
2023/09/12 07:53:10;;;;;;;;;;;;;;;;;;5089595;28;19947;-69
2023/09/12 07:55:45;;;;;;;;;;;;;;;;;;5085786;28;19973;-69
2023/09/12 07:58:12;;;;;;;;;;;;;;;;;;5088960;28;19924;-69
2023/09/12 08:00:38;;;;;;;;;;;;;;;;;;5089840;28;20384;-70
2023/09/12 08:03:05;;;;;;;;;;;;;;;;;;5088625;28;19975;-69
2023/09/12 08:05:34;;;;;;;;;;;;;;;;;;5090605;28;20447;-69
2023/09/12 08:08:01;;;;;;;;;;;;;;;;;;5089378;28;19977;-71
2023/09/12 08:10:28;;;;;;;;;;;;;;;;;;5079381;28;19924;-73
2023/09/12 08:12:56;;;;;;;;;;;;;;;;;;5094523;28;19977;-73
2023/09/12 08:15:23;;;;;;;;;;;;;;;;;;5092379;28;20391;-73
2023/09/12 08:17:51;;;;;;;;;;;;;;;;;;5078611;28;20353;-73
2023/09/12 08:20:18;;;;;;;;;;;;;;;;;;5093908;28;19936;-73
2023/09/12 08:22:45;;;;;;;;;;;;;;;;;;5088974;28;19970;-73
2023/09/12 08:25:14;;;;;;;;;;;;;;;;;;5097602;28;19924;-73
2023/09/12 08:27:42;;;;;;;;;;;;;;;;;;5090648;28;19943;-73
2023/09/12 08:30:09;;;;;;;;;;;;;;;;;;5090182;28;20015;-72
2023/09/12 08:32:36;;;;;;;;;;;;;;;;;;5088186;28;19931;-73
2023/09/12 08:35:03;;;;;;;;;;;;;;;;;;5093076;28;19924;-73
2023/09/12 08:37:30;;;;;;;;;;;;;;;;;;5089327;28;20325;-73
2023/09/12 08:39:59;;;;;;;;;;;;;;;;;;5092987;28;19932;-73
2023/09/12 08:42:26;;;;;;;;;;;;;;;;;;5093908;28;19996;-73
2023/09/12 08:44:53;;;;;;;;;;;;;;;;;;5094465;28;19924;-72
2023/09/12 08:47:20;;;;;;;;;;;;;;;;;;5094166;28;19924;-73
2023/09/12 08:49:47;;;;;;;;;;;;;;;;;;5095058;28;19968;-72
2023/09/12 08:52:14;;;;;;;;;;;;;;;;;;5093722;28;20383;-72
2023/09/12 08:54:41;;;;;;;;;;;;;;;;;;5094274;28;20073;-74
2023/09/12 08:57:08;;;;;;;;;;;;;;;;;;5093640;28;19924;-73
2023/09/12 08:59:35;;;;;;;;;;;;;;;;;;5093455;28;20444;-72
2023/09/12 09:02:02;;;;;;;;;;;;;;;;;;5089987;28;19932;-73
2023/09/12 09:04:30;;;;;;;;;;;;;;;;;;5093598;28;20338;-73
2023/09/12 09:06:57;;;;;;;;;;;;;;;;;;5092703;28;19969;-73
2023/09/12 09:09:24;;;;;;;;;;;;;;;;;;5091452;28;20386;-72
2023/09/12 09:11:51;;;;;;;;;;;;;;;;;;5091972;28;20007;-73
2023/09/12 09:14:18;;;;;;;;;;;;;;;;;;5086109;28;19935;-73
2023/09/12 09:16:45;;;;;;;;;;;;;;;;;;5090421;28;19928;-73
2023/09/12 09:19:13;;;;;;;;;;;;;;;;;;5099097;22;19946;-73
2023/09/12 09:21:40;;;;;;;;;;;;;;;;;;5087846;28;19928;-73
2023/09/12 09:24:07;;;;;;;;;;;;;;;;;;5091379;28;19932;-73
2023/09/12 09:26:34;;;;;;;;;;;;;;;;;;5086471;28;19984;-72
2023/09/12 09:29:03;;;;;;;;;;;;;;;;;;5091305;28;19956;-72
2023/09/12 09:31:31;;;;;;;;;;;;;;;;;;5087857;28;19963;-72
2023/09/12 09:33:58;;;;;;;;;;;;;;;;;;5088414;28;19932;-72
2023/09/12 09:36:25;;;;;;;;;;;;;;;;;;5091080;28;19981;-72
2023/09/12 09:38:52;;;;;;;;;;;;;;;;;;5091542;28;19932;-73
2023/09/12 09:41:19;;;;;;;;;;;;;;;;;;5074749;28;19924;-73
2023/09/12 09:43:46;;;;;;;;;;;;;;;;;;5084781;28;19925;-73
2023/09/12 09:46:13;;;;;;;;;;;;;;;;;;5082935;28;19925;-73
2023/09/12 09:48:40;;;;;;;;;;;;;;;;;;5081848;28;19978;-72
2023/09/12 09:51:07;;;;;;;;;;;;;;;;;;5090284;28;19954;-72
2023/09/12 09:53:34;;;;;;;;;;;;;;;;;;5093292;28;20278;-72
2023/09/12 09:56:01;;;;;;;;;;;;;;;;;;5094287;28;19981;-72
2023/09/12 09:58:28;;;;;;;;;;;;;;;;;;5092257;28;19996;-72
2023/09/12 10:00:55;;;;;;;;;;;;;;;;;;5091599;28;19928;-73
2023/09/12 10:03:22;;;;;;;;;;;;;;;;;;5074169;28;19924;-72
2023/09/12 10:05:49;;;;;;;;;;;;;;;;;;5081919;28;19970;-72
2023/09/12 10:08:17;;;;;;;;;;;;;;;;;;5088646;28;19924;-72
2023/09/12 10:10:44;;;;;;;;;;;;;;;;;;5090637;28;20287;-72
2023/09/12 10:13:11;;;;;;;;;;;;;;;;;;5088666;28;20425;-71
2023/09/12 10:15:38;;;;;;;;;;;;;;;;;;5089252;28;19930;-71
2023/09/12 10:18:05;;;;;;;;;;;;;;;;;;5090385;28;19931;-71
2023/09/12 10:20:32;;;;;;;;;;;;;;;;;;5089114;28;20449;-71
2023/09/12 10:22:59;;;;;;;;;;;;;;;;;;5085554;28;19931;-71
2023/09/12 10:25:26;;;;;;;;;;;;;;;;;;5090490;28;20391;-71
2023/09/12 10:27:53;;;;;;;;;;;;;;;;;;5090283;28;19928;-71
2023/09/12 10:30:20;;;;;;;;;;;;;;;;;;5091390;28;19960;-73
2023/09/12 10:32:47;;;;;;;;;;;;;;;;;;5089291;28;19932;-72
2023/09/12 10:35:14;;;;;;;;;;;;;;;;;;5086912;28;20400;-71
2023/09/12 10:37:41;;;;;;;;;;;;;;;;;;5081037;28;19924;-72
2023/09/12 10:40:08;;;;;;;;;;;;;;;;;;5090086;28;19924;-72
2023/09/12 10:42:35;;;;;;;;;;;;;;;;;;5088908;28;19924;-69
2023/09/12 10:45:03;;;;;;;;;;;;;;;;;;5089789;28;19982;-69
2023/09/12 10:47:30;;;;;;;;;;;;;;;;;;5087433;28;19928;-69
2023/09/12 10:49:57;;;;;;;;;;;;;;;;;;5090877;28;19924;-70
2023/09/12 10:52:24;;;;;;;;;;;;;;;;;;5088729;28;19928;-70
2023/09/12 10:54:51;;;;;;;;;;;;;;;;;;5092608;28;20019;-70
2023/09/12 10:57:18;;;;;;;;;;;;;;;;;;5090285;28;19946;-69
2023/09/12 10:59:45;;;;;;;;;;;;;;;;;;5086085;28;20647;-69
2023/09/12 11:02:12;;;;;;;;;;;;;;;;;;5091669;28;19924;-69
2023/09/12 11:04:39;;;;;;;;;;;;;;;;;;5092257;28;19978;-69
2023/09/12 11:07:06;;;;;;;;;;;;;;;;;;5091942;28;19996;-69
2023/09/12 11:09:33;;;;;;;;;;;;;;;;;;5090934;28;19937;-69
2023/09/12 11:12:01;;;;;;;;;;;;;;;;;;5084303;28;20035;-70
2023/09/12 11:14:28;;;;;;;;;;;;;;;;;;5084970;28;20276;-70
2023/09/12 11:16:55;;;;;;;;;;;;;;;;;;5089307;28;19928;-70
2023/09/12 11:19:23;;;;;;;;;;;;;;;;;;5084991;28;19928;-70
2023/09/12 11:21:50;;;;;;;;;;;;;;;;;;5081232;28;20410;-70
2023/09/12 11:24:17;;;;;;;;;;;;;;;;;;5087007;28;19968;-71
2023/09/12 11:26:44;;;;;;;;;;;;;;;;;;5085790;28;19947;-71
2023/09/12 11:29:11;;;;;;;;;;;;;;;;;;5088346;28;19977;-70
2023/09/12 11:31:41;;;;;;;;;;;;;;;;;;5086328;28;20340;-70
2023/09/12 11:34:08;;;;;;;;;;;;;;;;;;5084818;28;19924;-70
2023/09/12 11:36:35;;;;;;;;;;;;;;;;;;5092220;28;19924;-71
2023/09/12 11:39:02;;;;;;;;;;;;;;;;;;5088158;28;19924;-73
2023/09/12 11:41:29;;;;;;;;;;;;;;;;;;5086595;28;19936;-74
2023/09/12 11:43:56;;;;;;;;;;;;;;;;;;5082906;28;19977;-74
2023/09/12 11:46:23;;;;;;;;;;;;;;;;;;5086747;28;19924;-73
2023/09/12 11:48:50;;;;;;;;;;;;;;;;;;5085331;28;19925;-75
2023/09/12 11:51:17;;;;;;;;;;;;;;;;;;5082762;28;19928;-74
2023/09/12 11:53:44;;;;;;;;;;;;;;;;;;5086780;28;19924;-74
2023/09/12 11:56:11;;;;;;;;;;;;;;;;;;5084678;28;20500;-74
2023/09/12 11:58:38;;;;;;;;;;;;;;;;;;5089726;28;19924;-76
2023/09/12 12:01:05;;;;;;;;;;;;;;;;;;5090701;28;20372;-74
2023/09/12 12:03:32;;;;;;;;;;;;;;;;;;5090542;28;19977;-74
2023/09/12 12:05:59;;;;;;;;;;;;;;;;;;5090616;28;19924;-72
2023/09/12 12:08:26;;;;;;;;;;;;;;;;;;5087306;28;19985;-73
2023/09/12 12:10:54;;;;;;;;;;;;;;;;;;5085106;28;19986;-73
2023/09/12 12:13:21;;;;;;;;;;;;;;;;;;5081290;28;20329;-74
2023/09/12 12:15:48;;;;;;;;;;;;;;;;;;5083759;28;19974;-73
2023/09/12 12:18:15;;;;;;;;;;;;;;;;;;5083812;28;20456;-73
2023/09/12 12:20:42;;;;;;;;;;;;;;;;;;5089600;28;19931;-73
2023/09/12 12:23:09;;;;;;;;;;;;;;;;;;5089111;28;19970;-73
2023/09/12 12:25:36;;;;;;;;;;;;;;;;;;5088250;28;20001;-73
2023/09/12 12:28:03;;;;;;;;;;;;;;;;;;5082906;28;19970;-72
2023/09/12 12:30:30;;;;;;;;;;;;;;;;;;5091437;28;19950;-73
2023/09/12 12:32:57;;;;;;;;;;;;;;;;;;5089823;28;19935;-73
2023/09/12 12:35:25;;;;;;;;;;;;;;;;;;5080515;28;20409;-73
2023/09/12 12:37:52;;;;;;;;;;;;;;;;;;5083156;28;19924;-74
2023/09/12 12:40:19;;;;;;;;;;;;;;;;;;5082124;28;19925;-75
2023/09/12 12:42:47;;;;;;;;;;;;;;;;;;5076991;28;20445;-76
2023/09/12 12:45:14;;;;;;;;;;;;;;;;;;5087575;28;19976;-76
2023/09/12 12:47:41;;;;;;;;;;;;;;;;;;5090201;28;19924;-74
2023/09/12 12:50:08;;;;;;;;;;;;;;;;;;5086326;28;19928;-74
2023/09/12 12:52:37;;;;;;;;;;;;;;;;;;5078321;28;19924;-74
2023/09/12 12:55:04;;;;;;;;;;;;;;;;;;5091637;28;19924;-74
2023/09/12 12:57:31;;;;;;;;;;;;;;;;;;5094535;28;19978;-74
2023/09/12 12:59:58;;;;;;;;;;;;;;;;;;5092496;28;19975;-74
2023/09/12 13:02:25;;;;;;;;;;;;;;;;;;5091781;28;19935;-74
2023/09/12 13:04:52;;;;;;;;;;;;;;;;;;5089414;28;19924;-74
2023/09/12 13:07:19;;;;;;;;;;;;;;;;;;5093304;28;19928;-73
2023/09/12 13:09:47;;;;;;;;;;;;;;;;;;5091861;28;20317;-74
2023/09/12 13:12:15;;;;;;;;;;;;;;;;;;5085582;28;19943;-74
2023/09/12 13:14:43;;;;;;;;;;;;;;;;;;5090794;28;19934;-73
2023/09/12 13:17:10;;;;;;;;;;;;;;;;;;5086151;28;19924;-73
2023/09/12 13:19:37;;;;;;;;;;;;;;;;;;5094049;28;20263;-73
2023/09/12 13:22:04;;;;;;;;;;;;;;;;;;5080560;28;19924;-73
2023/09/12 13:24:31;;;;;;;;;;;;;;;;;;5089677;28;19925;-73
2023/09/12 13:26:58;;;;;;;;;;;;;;;;;;5088951;28;19943;-73
2023/09/12 13:29:25;;;;;;;;;;;;;;;;;;5092781;28;20295;-73
2023/09/12 13:31:52;;;;;;;;;;;;;;;;;;5093097;28;19928;-72
2023/09/12 13:34:19;;;;;;;;;;;;;;;;;;5092511;28;19931;-73
2023/09/12 13:36:46;;;;;;;;;;;;;;;;;;5094404;28;19936;-73
2023/09/12 13:39:13;;;;;;;;;;;;;;;;;;5091742;28;19977;-73
2023/09/12 13:41:41;;;;;;;;;;;;;;;;;;5091025;28;20338;-74
2023/09/12 13:44:08;;;;;;;;;;;;;;;;;;5093947;28;19928;-74
2023/09/12 13:46:35;;;;;;;;;;;;;;;;;;5078584;28;19931;-73
2023/09/12 13:49:03;;;;;;;;;;;;;;;;;;5089189;28;19986;-73
2023/09/12 13:51:30;;;;;;;;;;;;;;;;;;5089694;28;19931;-74
2023/09/12 13:53:57;;;;;;;;;;;;;;;;;;5092593;28;20376;-72
2023/09/12 13:56:24;;;;;;;;;;;;;;;;;;5092429;28;20387;-73
2023/09/12 13:58:51;;;;;;;;;;;;;;;;;;5086011;28;19964;-73
2023/09/12 14:01:18;;;;;;;;;;;;;;;;;;5081190;28;19924;-74
2023/09/12 14:03:45;;;;;;;;;;;;;;;;;;5092800;28;20351;-74
2023/09/12 14:06:12;;;;;;;;;;;;;;;;;;5088187;28;19925;-74
2023/09/12 14:08:39;;;;;;;;;;;;;;;;;;5079211;28;19924;-73
2023/09/12 14:11:06;;;;;;;;;;;;;;;;;;5089356;28;20068;-72
2023/09/12 14:13:34;;;;;;;;;;;;;;;;;;5080824;28;19974;-73
2023/09/12 14:16:01;;;;;;;;;;;;;;;;;;5086348;28;19924;-72
2023/09/12 14:18:28;;;;;;;;;;;;;;;;;;5090531;28;20285;-71
2023/09/12 14:20:55;;;;;;;;;;;;;;;;;;5083044;28;19929;-73
2023/09/12 14:23:22;;;;;;;;;;;;;;;;;;5090032;28;19924;-73
2023/09/12 14:25:49;;;;;;;;;;;;;;;;;;5090750;28;20554;-75
2023/09/12 14:28:17;;;;;;;;;;;;;;;;;;5089648;28;19931;-69
2023/09/12 14:30:45;;;;;;;;;;;;;;;;;;5091220;28;19930;-74
2023/09/12 14:33:12;;;;;;;;;;;;;;;;;;5086318;28;19928;-74
2023/09/12 14:35:40;;;;;;;;;;;;;;;;;;5091994;28;19928;-76
2023/09/12 14:38:07;;;;;;;;;;;;;;;;;;5087566;28;19931;-75
2023/09/12 14:40:34;;;;;;;;;;;;;;;;;;5088278;28;19932;-75
2023/09/12 14:43:02;;;;;;;;;;;;;;;;;;5086618;28;19986;-74
2023/09/12 14:45:29;;;;;;;;;;;;;;;;;;5087563;28;20024;-74
2023/09/12 14:47:56;;;;;;;;;;;;;;;;;;5089408;28;19924;-73
2023/09/12 14:50:23;;;;;;;;;;;;;;;;;;5085292;28;19924;-73
2023/09/12 14:52:51;;;;;;;;;;;;;;;;;;5085871;28;20324;-72
2023/09/12 14:55:18;;;;;;;;;;;;;;;;;;5090086;28;19924;-73
2023/09/12 14:57:45;;;;;;;;;;;;;;;;;;5088162;28;20341;-73
2023/09/12 15:00:12;;;;;;;;;;;;;;;;;;5088461;28;19996;-73
2023/09/12 15:02:40;;;;;;;;;;;;;;;;;;5086161;28;19932;-73
2023/09/12 15:05:09;;;;;;;;;;;;;;;;;;5080623;28;20410;-74
2023/09/12 15:07:37;;;;;;;;;;;;;;;;;;5086455;28;19928;-74
2023/09/12 15:10:05;;;;;;;;;;;;;;;;;;5083060;28;19935;-74
2023/09/12 15:12:33;;;;;;;;;;;;;;;;;;5084938;28;20352;-73
2023/09/12 15:15:00;;;;;;;;;;;;;;;;;;5090142;28;19924;-74
2023/09/12 15:17:28;;;;;;;;;;;;;;;;;;5088064;28;20288;-75
2023/09/12 15:19:55;;;;;;;;;;;;;;;;;;5078534;28;19933;-75
2023/09/12 15:22:22;;;;;;;;;;;;;;;;;;5073798;28;19993;-75
2023/09/12 15:24:50;;;;;;;;;;;;;;;;;;5080557;28;20019;-75
2023/09/12 15:27:17;;;;;;;;;;;;;;;;;;5087505;28;19924;-75
2023/09/12 15:29:45;;;;;;;;;;;;;;;;;;5080922;28;19946;-74
2023/09/12 15:32:12;;;;;;;;;;;;;;;;;;5087769;28;19928;-75
2023/09/12 15:34:39;;;;;;;;;;;;;;;;;;5091330;28;20011;-75
2023/09/12 15:37:08;;;;;;;;;;;;;;;;;;5085314;28;19935;-74
2023/09/12 15:39:35;;;;;;;;;;;;;;;;;;5091001;28;19924;-75
2023/09/12 15:42:04;;;;;;;;;;;;;;;;;;5085104;28;19928;-75
2023/09/12 15:44:34;;;;;;;;;;;;;;;;;;5091459;28;19924;-74
2023/09/12 15:47:02;;;;;;;;;;;;;;;;;;5089887;28;19927;-74
2023/09/12 15:49:29;;;;;;;;;;;;;;;;;;5090551;28;20010;-74
2023/09/12 15:51:56;;;;;;;;;;;;;;;;;;5082198;28;20283;-74
2023/09/12 15:54:24;;;;;;;;;;;;;;;;;;5085273;28;19925;-75
2023/09/12 15:56:51;;;;;;;;;;;;;;;;;;5090836;28;19924;-73
2023/09/12 15:59:19;;;;;;;;;;;;;;;;;;5086917;28;19927;-72
2023/09/12 16:01:46;;;;;;;;;;;;;;;;;;5086365;28;19924;-73
2023/09/12 16:04:13;;;;;;;;;;;;;;;;;;5087435;28;19932;-74
2023/09/12 16:06:45;;;;;;;;;;;;;;;;;;5083908;28;19924;-74
2023/09/12 16:09:13;;;;;;;;;;;;;;;;;;5089120;28;19924;-73
2023/09/12 16:11:40;;;;;;;;;;;;;;;;;;5086388;28;19940;-73
2023/09/12 16:14:07;;;;;;;;;;;;;;;;;;5087234;28;19932;-73
2023/09/12 16:16:35;;;;;;;;;;;;;;;;;;5081420;28;19924;-73
2023/09/12 16:19:09;;;;;;;;;;;;;;;;;;4937415;28;5205374;-70
2023/09/12 16:21:36;;;;;;;;;;;;;;;;;;5088344;28;19924;-70
2023/09/12 16:24:03;;;;;;;;;;;;;;;;;;5090795;28;20399;-71
2023/09/12 16:26:34;;;;;;;;;;;;;;;;;;5088209;28;19924;-70
2023/09/12 16:29:01;;;;;;;;;;;;;;;;;;5082665;28;19928;-70
2023/09/12 16:31:28;;;;;;;;;;;;;;;;;;5087737;28;19993;-70
2023/09/12 16:33:55;;;;;;;;;;;;;;;;;;5084084;28;19924;-69
2023/09/12 16:36:22;;;;;;;;;;;;;;;;;;5087159;28;19959;-70
2023/09/12 16:38:49;;;;;;;;;;;;;;;;;;5095548;28;19978;-71
2023/09/12 16:41:16;;;;;;;;;;;;;;;;;;5092502;28;20464;-70
2023/09/12 16:43:43;;;;;;;;;;;;;;;;;;5091595;28;19973;-70
2023/09/12 16:46:10;;;;;;;;;;;;;;;;;;5091461;28;19978;-70